Time;durP1;ratioP1;P1;durP2;ratioP2;P2;SDS_P1;SDS_P2;PMS_P1;PMS_P2;Temp;Humidity;BMP_temperature;BMP_pressure;BME280_temperature;BME280_humidity;BME280_pressure;Samples;Min_cycle;Max_cycle;Signal;HPM_P1;HPM_P2
2021/10/06 00:01:15;;;;;;;13.07;7.93;;;;;;;15.75;51.11;100005.81;5107877;28;20050;-75
2021/10/06 00:03:44;;;;;;;13.13;7.68;;;;;;;15.74;51.12;100005.00;5108540;28;20071;-78
2021/10/06 00:06:11;;;;;;;14.38;7.32;;;;;;;15.76;51.03;100013.66;5109818;28;20075;-76
2021/10/06 00:08:39;;;;;;;15.07;7.95;;;;;;;15.74;51.09;100007.66;5108299;28;20048;-75
2021/10/06 00:11:05;;;;;;;15.63;9.45;;;;;;;15.72;51.20;100011.41;5107502;28;20052;-76
2021/10/06 00:13:33;;;;;;;13.00;7.13;;;;;;;15.62;51.52;100004.34;5109561;28;20378;-74
2021/10/06 00:16:01;;;;;;;14.65;7.97;;;;;;;15.59;51.50;100006.47;5109239;28;20052;-76
2021/10/06 00:18:29;;;;;;;12.73;7.50;;;;;;;15.56;51.45;99998.78;5090365;28;20054;-75
2021/10/06 00:21:00;;;;;;;13.35;7.80;;;;;;;15.48;51.68;99989.72;5107346;28;20039;-74
2021/10/06 00:23:30;;;;;;;20.30;9.00;;;;;;;15.46;51.59;99998.84;5090199;28;20124;-76
2021/10/06 00:25:57;;;;;;;14.25;7.65;;;;;;;15.40;51.78;99988.78;5088851;28;20048;-76
2021/10/06 00:28:24;;;;;;;15.20;8.13;;;;;;;15.36;51.95;99998.03;5108828;28;20111;-75
2021/10/06 00:30:52;;;;;;;14.63;7.70;;;;;;;15.33;51.93;100011.66;5107799;28;20055;-75
2021/10/06 00:33:19;;;;;;;13.18;8.07;;;;;;;15.29;52.01;99992.50;5107891;28;20059;-74
2021/10/06 00:35:46;;;;;;;15.30;9.02;;;;;;;15.26;52.17;100000.75;5108646;28;20510;-75
2021/10/06 00:38:14;;;;;;;13.18;7.70;;;;;;;15.24;52.26;100000.91;5106195;28;20058;-73
2021/10/06 00:40:41;;;;;;;15.98;7.95;;;;;;;15.21;52.15;99997.72;5106997;28;20051;-74
2021/10/06 00:43:08;;;;;;;11.82;7.65;;;;;;;15.19;52.29;100010.31;5111829;28;20047;-74
2021/10/06 00:45:35;;;;;;;9.65;5.80;;;;;;;15.18;52.27;100008.63;5106302;28;20039;-73
2021/10/06 00:48:02;;;;;;;13.23;8.05;;;;;;;15.17;52.28;100009.63;5108446;28;20064;-73
2021/10/06 00:50:29;;;;;;;13.80;9.68;;;;;;;15.13;52.56;100010.91;5105606;28;20050;-73
2021/10/06 00:52:56;;;;;;;14.70;8.30;;;;;;;15.12;52.62;100003.91;5088183;28;20055;-74
2021/10/06 00:55:25;;;;;;;10.73;7.15;;;;;;;15.13;52.56;100005.59;5106555;28;20051;-73
2021/10/06 00:57:51;;;;;;;17.95;7.50;;;;;;;15.12;52.41;100010.06;5106486;28;20054;-73
2021/10/06 01:00:18;;;;;;;15.05;8.10;;;;;;;15.10;52.59;100002.22;5107223;28;20044;-73
2021/10/06 01:02:45;;;;;;;12.48;6.78;;;;;;;15.08;52.57;100004.19;5107094;28;20066;-75
2021/10/06 01:05:12;;;;;;;15.75;8.98;;;;;;;15.07;52.81;100010.53;5107566;28;20166;-72
2021/10/06 01:07:40;;;;;;;19.25;10.00;;;;;;;15.06;52.79;100002.69;5105785;28;20054;-72
2021/10/06 01:10:09;;;;;;;10.25;6.97;;;;;;;15.08;52.71;100000.72;5106791;28;20044;-73
2021/10/06 01:12:39;;;;;;;15.43;7.75;;;;;;;15.03;52.85;100001.13;5107731;28;20103;-72
2021/10/06 01:15:10;;;;;;;11.40;7.32;;;;;;;15.04;52.94;100000.16;5106881;28;20047;-72
2021/10/06 01:17:36;;;;;;;12.40;7.80;;;;;;;15.02;52.96;100014.59;5106985;28;20066;-74
2021/10/06 01:20:06;;;;;;;14.65;8.23;;;;;;;14.98;53.05;100002.56;5104602;28;20047;-73
2021/10/06 01:22:34;;;;;;;17.55;7.72;;;;;;;14.98;53.08;99998.09;5106000;28;20039;-72
2021/10/06 01:25:02;;;;;;;15.60;8.48;;;;;;;14.97;53.11;99998.25;5106650;28;20561;-73
2021/10/06 01:27:29;;;;;;;15.88;7.68;;;;;;;14.97;53.00;100001.72;5105172;28;20675;-74
2021/10/06 01:29:56;;;;;;;14.93;7.22;;;;;;;14.96;52.96;100000.03;5106502;28;20078;-74
2021/10/06 01:32:23;;;;;;;12.02;7.57;;;;;;;14.95;53.17;100003.69;5107189;28;20047;-73
2021/10/06 01:34:58;;;;;;;11.80;8.30;;;;;;;14.94;53.27;99993.22;5106746;28;20451;-73
2021/10/06 01:37:25;;;;;;;12.65;7.80;;;;;;;14.93;53.07;99992.38;5106193;28;20044;-73
2021/10/06 01:39:54;;;;;;;16.48;7.75;;;;;;;14.90;53.09;100000.63;5110875;28;20055;-72
2021/10/06 01:42:21;;;;;;;18.33;9.40;;;;;;;14.86;53.52;99999.25;5112234;28;20518;-74
2021/10/06 01:44:49;;;;;;;13.98;7.88;;;;;;;14.85;53.46;100003.72;5114426;28;20144;-75
2021/10/06 01:47:21;;;;;;;14.05;8.55;;;;;;;14.83;53.57;100005.69;5095501;28;20054;-73
2021/10/06 01:49:48;;;;;;;17.80;7.50;;;;;;;14.83;53.51;100010.19;5105873;28;20043;-71
2021/10/06 01:52:17;;;;;;;13.30;8.05;;;;;;;14.83;53.34;100004.84;5108270;28;20051;-71
2021/10/06 01:54:44;;;;;;;13.65;8.43;;;;;;;14.81;53.67;99996.19;5107014;28;20104;-72
2021/10/06 01:57:13;;;;;;;12.48;8.23;;;;;;;14.80;53.56;99997.16;5106171;28;20044;-72
2021/10/06 01:59:43;;;;;;;11.80;8.05;;;;;;;14.79;53.54;100000.81;5107379;28;20071;-71
2021/10/06 02:02:11;;;;;;;14.50;7.68;;;;;;;14.76;53.65;100001.94;5106847;28;20050;-73
2021/10/06 02:04:38;;;;;;;12.90;7.68;;;;;;;14.73;53.73;100004.91;5105499;28;20063;-72
2021/10/06 02:07:05;;;;;;;16.02;9.02;;;;;;;14.72;53.83;99998.72;5106611;28;20054;-73
2021/10/06 02:09:32;;;;;;;15.52;7.30;;;;;;;14.74;53.69;100003.91;5105422;28;20047;-73
2021/10/06 02:11:59;;;;;;;14.25;7.88;;;;;;;14.71;53.74;100002.38;5106070;28;20044;-72
2021/10/06 02:14:27;;;;;;;13.57;7.75;;;;;;;14.76;53.77;100003.75;5106317;28;20449;-73
2021/10/06 02:16:54;;;;;;;12.57;7.78;;;;;;;14.78;53.67;99999.97;5106074;28;20051;-73
2021/10/06 02:19:21;;;;;;;15.60;7.50;;;;;;;14.81;53.57;99998.84;5103605;28;20044;-72
2021/10/06 02:21:47;;;;;;;16.42;8.45;;;;;;;14.83;53.59;100015.50;5106577;28;20044;-73
2021/10/06 02:24:14;;;;;;;12.23;6.85;;;;;;;14.90;53.35;100016.59;5106508;28;20048;-71
2021/10/06 02:26:41;;;;;;;13.32;9.48;;;;;;;14.99;53.19;100006.91;5105680;28;20043;-70
2021/10/06 02:29:08;;;;;;;15.05;8.30;;;;;;;15.02;53.05;100010.13;5105676;28;20044;-74
2021/10/06 02:31:36;;;;;;;15.63;8.82;;;;;;;15.07;53.08;100015.84;5105709;28;20047;-72
2021/10/06 02:34:03;;;;;;;13.02;7.75;;;;;;;15.09;52.94;100015.69;5105631;28;20048;-75
2021/10/06 02:36:30;;;;;;;13.93;7.75;;;;;;;15.06;52.96;100000.84;5105790;28;20487;-73
2021/10/06 02:38:58;;;;;;;10.70;6.93;;;;;;;15.10;52.87;100015.53;5087137;28;20055;-73
2021/10/06 02:41:25;;;;;;;14.20;7.80;;;;;;;15.18;52.47;100014.81;5105587;28;20047;-71
2021/10/06 02:43:52;;;;;;;17.50;10.00;;;;;;;15.20;52.72;100012.00;5105024;28;20051;-72
2021/10/06 02:46:19;;;;;;;14.65;7.28;;;;;;;15.26;52.43;100012.25;5109087;28;20040;-72
2021/10/06 02:48:47;;;;;;;13.82;7.72;;;;;;;15.25;52.64;100020.38;5105343;28;20048;-71
2021/10/06 02:51:14;;;;;;;14.18;7.97;;;;;;;15.30;52.66;100015.44;5103505;28;20590;-71
2021/10/06 02:53:41;;;;;;;13.95;8.60;;;;;;;15.32;52.36;100026.78;5086561;28;20063;-73
2021/10/06 02:56:09;;;;;;;15.05;7.93;;;;;;;15.35;52.37;100020.34;5106042;28;20047;-72
2021/10/06 02:58:36;;;;;;;13.65;7.47;;;;;;;15.38;52.23;100022.72;5105427;28;20043;-71
2021/10/06 03:01:03;;;;;;;14.68;7.72;;;;;;;15.32;52.33;100026.78;5104687;28;20048;-72
2021/10/06 03:03:30;;;;;;;11.70;7.28;;;;;;;15.28;52.40;100025.41;5104949;28;20510;-73
2021/10/06 03:05:58;;;;;;;16.48;7.30;;;;;;;15.27;52.57;100019.25;5105378;28;20054;-69
2021/10/06 03:08:25;;;;;;;11.77;7.18;;;;;;;15.26;52.50;100027.38;5107017;28;20067;-72
2021/10/06 03:10:52;;;;;;;12.93;7.78;;;;;;;15.26;52.57;100024.72;5105722;28;20051;-71
2021/10/06 03:13:19;;;;;;;12.55;6.93;;;;;;;15.24;52.67;100034.66;5105952;28;20040;-72
2021/10/06 03:15:46;;;;;;;13.15;6.55;;;;;;;15.26;52.49;100033.53;5106638;28;20047;-72
2021/10/06 03:18:13;;;;;;;16.83;7.28;;;;;;;15.26;52.43;100040.69;5109872;28;20491;-73
2021/10/06 03:20:40;;;;;;;12.35;7.25;;;;;;;15.26;52.54;100040.69;5106867;28;20062;-73
2021/10/06 03:23:08;;;;;;;12.65;6.88;;;;;;;15.32;52.06;100048.06;5108630;28;20047;-73
2021/10/06 03:25:35;;;;;;;14.15;7.22;;;;;;;15.34;52.20;100051.44;5108082;28;20043;-73
2021/10/06 03:28:02;;;;;;;11.18;7.25;;;;;;;15.34;52.28;100051.44;5108945;28;20052;-73
2021/10/06 03:30:29;;;;;;;11.95;6.95;;;;;;;15.32;52.37;100053.38;5108749;28;20056;-74
2021/10/06 03:32:56;;;;;;;15.68;8.70;;;;;;;15.26;52.45;100051.31;5107890;28;20047;-74
2021/10/06 03:35:23;;;;;;;12.65;7.28;;;;;;;15.22;52.57;100052.59;5108776;28;20048;-74
2021/10/06 03:37:51;;;;;;;11.50;7.85;;;;;;;15.19;52.43;100055.53;5108613;28;20631;-73
2021/10/06 03:40:19;;;;;;;10.52;6.68;;;;;;;15.17;52.62;100061.00;5077111;28;20068;-73
2021/10/06 03:42:47;;;;;;;10.38;6.78;;;;;;;15.13;52.57;100056.16;5087816;28;20585;-73
2021/10/06 03:45:15;;;;;;;14.80;7.65;;;;;;;15.10;52.65;100060.75;5087588;28;20048;-71
2021/10/06 03:47:43;;;;;;;13.75;7.30;;;;;;;15.09;52.67;100063.56;5087134;28;20067;-73
2021/10/06 03:50:12;;;;;;;14.60;7.13;;;;;;;15.10;52.71;100067.91;5085062;28;20055;-73
2021/10/06 03:52:39;;;;;;;11.02;7.07;;;;;;;15.07;52.70;100069.03;5087084;28;20050;-73
2021/10/06 03:55:08;;;;;;;11.80;7.07;;;;;;;15.06;52.69;100077.16;5086681;28;20658;-72
2021/10/06 03:57:37;;;;;;;14.40;7.97;;;;;;;15.10;52.63;100084.69;5088381;28;20050;-73
2021/10/06 04:00:05;;;;;;;10.80;7.10;;;;;;;15.09;52.65;100069.72;5088008;28;20052;-73
2021/10/06 04:02:33;;;;;;;15.10;7.82;;;;;;;15.10;52.70;100068.72;5088058;28;20047;-74
2021/10/06 04:05:00;;;;;;;10.02;5.90;;;;;;;15.12;52.60;100067.75;5092266;28;20036;-74
2021/10/06 04:07:27;;;;;;;11.00;6.82;;;;;;;15.09;52.67;100064.41;5087807;28;20403;-73
2021/10/06 04:09:54;;;;;;;10.98;7.25;;;;;;;15.09;52.68;100071.56;5088597;28;20046;-73
2021/10/06 04:12:21;;;;;;;10.40;6.82;;;;;;;15.07;52.75;100066.38;5087563;28;20066;-73
2021/10/06 04:14:49;;;;;;;13.73;6.65;;;;;;;15.02;52.81;100067.78;5087976;28;20040;-70
2021/10/06 04:17:16;;;;;;;13.77;7.60;;;;;;;15.01;52.54;100071.44;5088491;28;20071;-71
2021/10/06 04:19:44;;;;;;;13.25;8.77;;;;;;;14.96;52.91;100063.88;5085933;28;20048;-73
2021/10/06 04:22:11;;;;;;;9.45;7.30;;;;;;;14.94;53.05;100076.47;5088167;28;20050;-72
2021/10/06 04:24:38;;;;;;;8.60;6.85;;;;;;;14.95;52.88;100082.66;5088829;28;20052;-74
2021/10/06 04:27:05;;;;;;;11.43;7.63;;;;;;;14.99;52.90;100074.22;5088152;28;20643;-72
2021/10/06 04:29:32;;;;;;;12.50;6.50;;;;;;;15.03;52.70;100083.59;5088659;28;20048;-72
2021/10/06 04:32:00;;;;;;;13.15;6.70;;;;;;;15.09;52.57;100083.03;5088929;28;20131;-75
2021/10/06 04:34:27;;;;;;;13.10;8.13;;;;;;;15.12;52.60;100084.53;5089333;28;20048;-73
2021/10/06 04:36:58;;;;;;;10.65;6.85;;;;;;;15.10;52.64;100095.31;5088697;28;20139;-79
2021/10/06 04:39:25;;;;;;;10.93;7.13;;;;;;;15.09;52.47;100088.34;5095666;28;20059;-72
2021/10/06 04:41:52;;;;;;;12.82;6.88;;;;;;;15.12;52.54;100092.53;5109936;28;20047;-73
2021/10/06 04:44:19;;;;;;;13.63;7.75;;;;;;;15.17;52.36;100094.75;5107857;28;20043;-75
2021/10/06 04:46:47;;;;;;;11.73;6.38;;;;;;;15.20;52.26;100097.97;5110705;27;20046;-76
2021/10/06 04:49:16;;;;;;;11.73;6.85;;;;;;;15.24;52.23;100101.19;5110283;27;20134;-74
2021/10/06 04:51:43;;;;;;;13.50;6.90;;;;;;;15.26;52.09;100102.69;5125104;27;20545;-73
2021/10/06 04:54:10;;;;;;;12.73;6.85;;;;;;;15.28;52.08;100099.91;5127988;27;20719;-76
2021/10/06 04:56:37;;;;;;;14.18;7.53;;;;;;;15.30;52.07;100108.56;5130415;27;20043;-76
2021/10/06 04:59:04;;;;;;;11.48;7.30;;;;;;;15.23;52.24;100097.69;5127561;27;20117;-75
2021/10/06 05:01:32;;;;;;;10.70;7.63;;;;;;;15.22;52.31;100101.31;5113681;27;20055;-77
2021/10/06 05:03:59;;;;;;;14.95;7.47;;;;;;;15.21;52.40;100104.13;5121985;27;20047;-76
2021/10/06 05:06:27;;;;;;;10.60;7.78;;;;;;;15.21;52.44;100104.94;5127959;27;20100;-74
2021/10/06 05:08:54;;;;;;;12.18;7.45;;;;;;;15.22;52.28;100119.94;5128186;27;20157;-74
2021/10/06 05:11:22;;;;;;;11.77;5.97;;;;;;;15.17;52.24;100118.72;5128252;27;20051;-72
2021/10/06 05:13:52;;;;;;;13.32;7.63;;;;;;;15.15;52.53;100126.00;5127044;27;20486;-73
2021/10/06 05:16:23;;;;;;;11.70;7.20;;;;;;;15.12;52.61;100120.97;5128114;27;20472;-76
2021/10/06 05:18:50;;;;;;;10.52;7.60;;;;;;;15.08;52.59;100115.09;5128310;27;20107;-76
2021/10/06 05:21:18;;;;;;;9.27;6.70;;;;;;;15.08;52.46;100123.06;5128589;27;20043;-81
2021/10/06 05:23:47;;;;;;;15.07;6.65;;;;;;;15.15;52.37;100116.19;5128469;27;20047;-75
2021/10/06 05:26:14;;;;;;;13.82;6.70;;;;;;;15.21;52.19;100120.09;5127263;27;20051;-76
2021/10/06 05:28:41;;;;;;;16.63;8.43;;;;;;;15.22;52.08;100117.28;5131411;27;20047;-74
2021/10/06 05:31:09;;;;;;;12.18;7.47;;;;;;;15.25;52.18;100125.00;5130087;27;20564;-78
2021/10/06 05:33:36;;;;;;;14.57;8.70;;;;;;;15.27;52.08;100132.84;5129373;27;20043;-72
2021/10/06 05:36:05;;;;;;;11.70;7.65;;;;;;;15.31;52.03;100126.22;5130474;27;20040;-79
2021/10/06 05:38:32;;;;;;;13.90;7.22;;;;;;;15.35;51.99;100129.44;5128319;27;20050;-76
2021/10/06 05:41:01;;;;;;;12.30;6.53;;;;;;;15.41;51.72;100136.81;5129674;27;20520;-79
2021/10/06 05:43:28;;;;;;;10.35;6.63;;;;;;;15.48;51.52;100145.91;5129854;27;20494;-74
2021/10/06 05:45:54;;;;;;;12.00;8.50;;;;;;;15.53;51.46;100151.63;5110450;27;20047;-78
2021/10/06 05:48:21;;;;;;;11.73;6.93;;;;;;;15.60;51.22;100155.41;5130216;27;20047;-76
2021/10/06 05:50:48;;;;;;;9.48;6.72;;;;;;;15.61;51.28;100158.88;5127021;27;20058;-76
2021/10/06 05:53:15;;;;;;;11.15;7.25;;;;;;;15.58;51.39;100159.19;5129000;27;20054;-76
2021/10/06 05:55:42;;;;;;;14.70;6.95;;;;;;;15.57;51.48;100158.34;5135732;27;20047;-79
2021/10/06 05:58:12;;;;;;;12.40;8.20;;;;;;;15.57;51.51;100170.81;5133437;27;20043;-80
2021/10/06 06:00:39;;;;;;;11.82;8.57;;;;;;;15.55;51.59;100181.59;5130236;27;20055;-82
2021/10/06 06:03:09;;;;;;;15.25;7.10;;;;;;;15.54;51.81;100179.09;5132388;27;20122;-81
2021/10/06 06:05:39;;;;;;;11.60;6.68;;;;;;;15.56;51.75;100187.78;5131873;28;20043;-76
2021/10/06 06:08:07;;;;;;;17.48;8.00;;;;;;;15.56;51.83;100190.47;5132061;28;20410;-81
2021/10/06 06:10:34;;;;;;;11.23;7.13;;;;;;;15.58;51.79;100207.94;5130878;28;20059;-78
2021/10/06 06:13:01;;;;;;;13.02;7.82;;;;;;;15.68;51.73;100205.25;5129524;28;20043;-73
2021/10/06 06:15:29;;;;;;;14.05;8.80;;;;;;;15.69;51.67;100209.59;5130287;28;20134;-72
2021/10/06 06:17:56;;;;;;;11.30;7.65;;;;;;;15.69;51.74;100212.25;5133887;28;20126;-75
2021/10/06 06:20:24;;;;;;;17.65;7.35;;;;;;;15.65;52.00;100221.53;5128512;28;20051;-72
2021/10/06 06:22:52;;;;;;;12.68;7.38;;;;;;;15.65;52.03;100221.53;5129543;28;20043;-75
2021/10/06 06:25:20;;;;;;;12.98;7.85;;;;;;;15.66;52.07;100228.50;5132329;28;20062;-71
2021/10/06 06:27:47;;;;;;;19.33;9.85;;;;;;;15.67;52.02;100227.53;5130021;28;20126;-78
2021/10/06 06:30:14;;;;;;;12.90;7.35;;;;;;;15.66;52.08;100228.50;5132507;28;20050;-71
2021/10/06 06:32:44;;;;;;;12.18;6.85;;;;;;;15.63;52.10;100219.00;5131139;28;20043;-71
2021/10/06 06:35:11;;;;;;;12.73;7.03;;;;;;;15.62;52.15;100224.47;5135631;28;20073;-70
2021/10/06 06:37:38;;;;;;;12.70;6.68;;;;;;;15.56;52.31;100230.38;5131317;28;20053;-70
2021/10/06 06:40:07;;;;;;;11.60;7.35;;;;;;;15.49;52.65;100230.13;5120961;28;20533;-71
2021/10/06 06:42:34;;;;;;;16.25;7.20;;;;;;;15.18;53.97;100224.97;5108326;28;20052;-80
2021/10/06 06:45:01;;;;;;;16.20;7.43;;;;;;;14.82;55.27;100229.16;5108778;28;20054;-73
2021/10/06 06:47:28;;;;;;;11.98;7.60;;;;;;;14.55;56.54;100230.69;5107223;28;20044;-77
2021/10/06 06:49:59;;;;;;;14.90;8.57;;;;;;;14.40;57.04;100230.22;5108150;28;20039;-80
2021/10/06 06:52:26;;;;;;;12.15;8.98;;;;;;;14.21;57.91;100227.53;5109861;28;20054;-70
2021/10/06 06:54:53;;;;;;;13.57;7.88;;;;;;;14.17;57.98;100237.59;5109255;28;20040;-75
2021/10/06 06:57:20;;;;;;;14.10;8.95;;;;;;;14.10;58.70;100239.09;5109849;28;20047;-70
2021/10/06 06:59:47;;;;;;;12.73;9.00;;;;;;;14.03;59.12;100237.94;5111025;28;20051;-75
2021/10/06 07:02:14;;;;;;;15.30;9.20;;;;;;;14.00;59.38;100254.97;5109865;28;20051;-73
2021/10/06 07:04:41;;;;;;;14.48;8.75;;;;;;;13.96;59.65;100258.88;5110046;28;20058;-72
2021/10/06 07:07:13;;;;;;;11.25;9.27;;;;;;;13.90;59.79;100257.59;5109158;28;20039;-70
2021/10/06 07:09:47;;;;;;;18.77;10.88;;;;;;;13.87;60.54;100265.81;5114890;28;20047;-73
2021/10/06 07:12:14;;;;;;;16.15;9.52;;;;;;;13.87;60.53;100271.13;5112350;28;20055;-80
2021/10/06 07:14:42;;;;;;;16.05;9.73;;;;;;;13.83;60.68;100274.16;5113022;28;20044;-74
2021/10/06 07:17:09;;;;;;;15.00;8.88;;;;;;;13.77;60.98;100264.91;5112434;28;20056;-82
2021/10/06 07:19:36;;;;;;;12.65;10.10;;;;;;;13.75;61.20;100269.53;5108960;28;20048;-70
2021/10/06 07:22:04;;;;;;;18.83;10.00;;;;;;;13.77;61.64;100275.53;5109674;28;20044;-71
2021/10/06 07:24:33;;;;;;;14.00;10.93;;;;;;;13.74;62.25;100278.47;5108672;28;20501;-69
2021/10/06 07:27:00;;;;;;;14.82;9.65;;;;;;;13.73;62.28;100280.25;5108447;28;20048;-75
2021/10/06 07:29:27;;;;;;;16.35;11.20;;;;;;;13.73;62.61;100280.25;5106355;28;20400;-71
2021/10/06 07:31:54;;;;;;;14.90;10.07;;;;;;;13.69;62.62;100270.06;5108044;28;20623;-70
2021/10/06 07:34:21;;;;;;;17.13;12.50;;;;;;;13.65;63.00;100276.56;5108365;28;20070;-71
2021/10/06 07:36:48;;;;;;;17.60;11.52;;;;;;;13.67;62.85;100283.47;5107965;28;20050;-72
2021/10/06 07:39:16;;;;;;;17.63;11.43;;;;;;;13.68;62.88;100281.63;5114838;27;20051;-71
2021/10/06 07:41:45;;;;;;;15.55;11.07;;;;;;;13.70;63.25;100285.84;5112525;28;20044;-71
2021/10/06 07:44:12;;;;;;;15.82;11.32;;;;;;;13.77;63.28;100278.19;5111482;28;20573;-72
2021/10/06 07:46:39;;;;;;;18.08;13.93;;;;;;;13.79;63.70;100286.03;5116136;28;20044;-73
2021/10/06 07:49:06;;;;;;;17.00;10.65;;;;;;;13.79;63.50;100278.06;5110953;28;20084;-70
2021/10/06 07:51:33;;;;;;;22.88;12.75;;;;;;;13.79;63.77;100278.91;5115160;28;20051;-74
2021/10/06 07:54:00;;;;;;;21.70;12.40;;;;;;;13.81;63.79;100279.63;5116223;28;20070;-73
2021/10/06 07:56:27;;;;;;;14.50;11.70;;;;;;;13.83;63.80;100277.69;5109277;28;20049;-73
2021/10/06 07:58:57;;;;;;;19.13;10.73;;;;;;;13.96;63.53;100288.09;5110437;28;20049;-73
2021/10/06 08:01:24;;;;;;;20.13;12.13;;;;;;;14.09;63.21;100295.84;5108869;28;20079;-74
2021/10/06 08:03:51;;;;;;;16.30;10.98;;;;;;;14.24;62.71;100291.84;5108621;28;20047;-72
2021/10/06 08:06:19;;;;;;;12.35;9.60;;;;;;;14.30;62.54;100286.00;5108705;28;20043;-72
2021/10/06 08:08:47;;;;;;;19.00;10.45;;;;;;;14.31;62.20;100290.34;5108386;28;20160;-72
2021/10/06 08:11:19;;;;;;;17.73;11.00;;;;;;;14.31;62.50;100298.31;5109934;28;20043;-75
2021/10/06 08:16:31;;;;;;;15.70;11.05;;;;;;;14.24;62.76;100302.47;5110251;28;20070;-74
2021/10/06 08:18:58;;;;;;;15.20;10.13;;;;;;;14.25;62.70;100301.50;5110728;28;20047;-77
2021/10/06 08:21:25;;;;;;;16.63;10.90;;;;;;;14.25;63.11;100301.50;5108916;28;20043;-77
2021/10/06 08:23:53;;;;;;;16.17;11.52;;;;;;;14.35;63.01;100304.19;5110686;28;20052;-76
2021/10/06 08:26:20;;;;;;;13.77;12.00;;;;;;;14.45;62.83;100306.88;5110026;28;20051;-73
2021/10/06 08:28:47;;;;;;;13.50;10.80;;;;;;;14.37;63.01;100307.56;5114849;28;20061;-72
2021/10/06 08:31:13;;;;;;;22.83;14.10;;;;;;;14.30;63.18;100301.09;5108288;28;20085;-74
2021/10/06 08:33:42;;;;;;;17.60;11.82;;;;;;;14.22;63.56;100309.72;5108361;28;20557;-77
2021/10/06 08:36:09;;;;;;;17.92;10.70;;;;;;;14.24;63.47;100314.91;5108567;28;20043;-73
2021/10/06 08:38:36;;;;;;;17.02;10.70;;;;;;;14.22;63.78;100312.38;5106005;28;20039;-73
2021/10/06 08:41:05;;;;;;;17.73;11.95;;;;;;;14.29;63.72;100321.50;5109674;28;20083;-76
2021/10/06 08:43:36;;;;;;;17.70;11.50;;;;;;;14.27;63.55;100312.81;5108884;28;20047;-73
2021/10/06 08:46:03;;;;;;;18.15;10.70;;;;;;;14.25;63.64;100314.78;5112405;28;20415;-77
2021/10/06 08:48:30;;;;;;;14.50;10.25;;;;;;;14.37;63.33;100312.00;5107432;28;20475;-74
2021/10/06 08:50:59;;;;;;;14.55;10.20;;;;;;;14.51;63.30;100320.47;5110790;28;20051;-73
2021/10/06 08:53:26;;;;;;;19.17;11.93;;;;;;;14.76;62.64;100322.78;5107074;28;20043;-78
2021/10/06 08:55:53;;;;;;;13.40;9.80;;;;;;;14.85;62.17;100312.16;5109092;28;20044;-76
2021/10/06 08:58:20;;;;;;;16.10;10.40;;;;;;;14.95;62.11;100316.69;5110233;28;20494;-78
2021/10/06 09:00:55;;;;;;;18.02;11.93;;;;;;;15.01;62.27;100332.06;5113492;28;20059;-74
2021/10/06 09:03:27;;;;;;;29.38;11.18;;;;;;;15.15;61.98;100323.69;5119139;28;20044;-77
2021/10/06 09:06:03;;;;;;;15.25;10.77;;;;;;;15.27;61.83;100327.06;5123727;28;20047;-74
2021/10/06 09:08:31;;;;;;;17.52;11.00;;;;;;;15.40;61.52;100337.44;5123295;28;20476;-75
2021/10/06 09:10:58;;;;;;;13.15;10.77;;;;;;;15.52;61.26;100332.78;5124096;28;20044;-76
2021/10/06 09:13:26;;;;;;;17.80;11.52;;;;;;;15.59;61.49;100337.44;5119705;28;20047;-73
2021/10/06 09:15:54;;;;;;;14.75;11.00;;;;;;;15.60;61.41;100339.09;5118939;28;20108;-76
2021/10/06 09:18:22;;;;;;;14.68;11.23;;;;;;;15.62;61.66;100338.94;5118150;28;20069;-78
2021/10/06 09:20:50;;;;;;;19.63;11.73;;;;;;;15.71;61.50;100343.41;5117865;28;20044;-79
2021/10/06 09:23:22;;;;;;;17.88;11.57;;;;;;;15.79;61.64;100348.06;5119885;28;20074;-80
2021/10/06 09:25:52;;;;;;;13.25;9.38;;;;;;;15.88;61.49;100346.38;5115703;28;20448;-81
2021/10/06 09:28:28;;;;;;;20.80;10.98;;;;;;;15.96;61.38;100354.50;5116297;28;20050;-79
2021/10/06 09:30:56;;;;;;;;;;;;;;;16.38;60.28;100359.41;5112351;28;20044;-81
2021/10/06 09:33:23;;;;;;;15.93;11.18;;;;;;;16.28;60.64;100361.25;5111640;28;19934;-77
2021/10/06 09:36:09;;;;;;;13.70;9.10;;;;;;;16.28;60.68;100355.94;5111365;28;20046;-80
2021/10/06 09:38:46;;;;;;;15.48;10.68;;;;;;;16.33;60.76;100356.34;5108129;28;20047;-75
2021/10/06 09:41:34;;;;;;;17.58;11.13;;;;;;;16.37;60.84;100358.56;5106933;28;20100;-80
2021/10/06 09:44:09;;;;;;;12.05;8.82;;;;;;;16.47;60.58;100365.69;5101838;28;20048;-76
2021/10/06 09:46:48;;;;;;;12.52;9.82;;;;;;;16.70;60.23;100364.31;5108764;28;20055;-76
2021/10/06 09:49:19;;;;;;;13.75;9.65;;;;;;;16.90;59.56;100354.41;5113539;28;20138;-76
2021/10/06 09:51:47;;;;;;;13.32;9.07;;;;;;;16.96;59.30;100361.81;5116328;28;20023;-78
2021/10/06 09:54:15;;;;;;;15.48;8.75;;;;;;;16.97;59.33;100358.16;5122247;28;20072;-82
2021/10/06 09:56:44;;;;;;;12.18;8.38;;;;;;;17.00;59.12;100365.88;5117355;28;20554;-81
2021/10/06 09:59:13;;;;;;;13.82;8.20;;;;;;;17.03;58.93;100364.72;5115640;28;20139;-77
2021/10/06 10:01:42;;;;;;;12.95;9.60;;;;;;;17.14;58.63;100366.31;5111062;28;20051;-77
2021/10/06 10:04:10;;;;;;;14.25;8.98;;;;;;;17.23;58.20;100373.41;5110996;28;20058;-78
2021/10/06 10:06:39;;;;;;;15.98;9.15;;;;;;;17.33;57.81;100368.03;5058678;28;20526;-77
2021/10/06 10:09:08;;;;;;;21.38;8.82;;;;;;;17.34;57.58;100367.88;5107360;28;20044;-78
2021/10/06 10:11:38;;;;;;;14.90;8.48;;;;;;;17.37;57.28;100378.22;5107513;28;20047;-76
2021/10/06 10:14:08;;;;;;;13.20;7.97;;;;;;;17.40;57.21;100366.41;5105149;28;20529;-75
2021/10/06 10:16:38;;;;;;;14.82;8.07;;;;;;;17.46;56.80;100368.47;5105703;28;20043;-80
2021/10/06 10:19:08;;;;;;;11.65;7.43;;;;;;;17.55;56.52;100372.88;5106502;28;20066;-75
2021/10/06 10:21:37;;;;;;;15.40;8.45;;;;;;;17.76;55.94;100372.56;5105462;28;20043;-75
2021/10/06 10:24:13;;;;;;;13.75;9.52;;;;;;;18.00;55.43;100373.78;5103953;28;20135;-77
2021/10/06 10:26:58;;;;;;;14.48;8.82;;;;;;;18.30;55.00;100374.31;5108169;28;20070;-75
2021/10/06 10:29:39;;;;;;;12.07;9.40;;;;;;;18.58;54.60;100374.94;5107810;28;20052;-78
2021/10/06 10:32:09;;;;;;;18.17;8.63;;;;;;;18.83;53.88;100381.25;5108279;28;20062;-75
2021/10/06 10:34:59;;;;;;;14.90;10.25;;;;;;;19.09;53.47;100375.00;5106643;28;20043;-75
2021/10/06 10:38:17;;;;;;;12.27;8.05;;;;;;;19.22;53.07;100375.34;5108860;28;20080;-74
2021/10/06 10:40:53;;;;;;;13.73;7.72;;;;;;;19.20;52.94;100387.22;5107186;28;20056;-74
2021/10/06 10:43:23;;;;;;;11.98;8.02;;;;;;;19.03;53.68;100384.50;5107161;28;20047;-74
2021/10/06 10:46:02;;;;;;;11.55;7.57;;;;;;;18.82;53.54;100379.59;5108761;28;20122;-74
2021/10/06 10:48:31;;;;;;;9.55;7.40;;;;;;;18.63;53.66;100374.47;5107583;28;20051;-77
2021/10/06 10:51:09;;;;;;;11.93;7.43;;;;;;;18.58;53.55;100376.78;5106619;28;20666;-76
2021/10/06 10:53:59;;;;;;;12.48;8.23;;;;;;;18.54;53.44;100365.56;5108490;28;20446;-73
2021/10/06 10:56:42;;;;;;;12.18;8.90;;;;;;;18.31;53.22;100374.16;5026433;28;20053;-74
2021/10/06 10:59:12;;;;;;;11.88;7.80;;;;;;;18.17;53.60;100376.53;5023661;28;20095;-72
2021/10/06 11:01:45;;;;;;;9.43;7.43;;;;;;;18.03;53.74;100378.81;5026664;28;20061;-72
2021/10/06 11:04:15;;;;;;;10.88;7.13;;;;;;;18.01;53.57;100386.16;5022457;28;20045;-72
2021/10/06 11:06:44;;;;;;;12.88;8.60;;;;;;;17.96;53.64;100386.59;5023944;28;20049;-74
2021/10/06 11:09:44;;;;;;;14.25;8.15;;;;;;;18.01;53.82;100390.66;5006837;28;20037;-74
2021/10/06 11:12:42;;;;;;;12.18;7.13;;;;;;;18.17;53.70;100392.59;5019995;28;20052;-74
2021/10/06 11:15:29;;;;;;;10.30;8.43;;;;;;;18.41;53.53;100392.75;5023131;28;20545;-73
2021/10/06 11:18:29;;;;;;;12.35;7.47;;;;;;;18.83;52.44;100393.78;5021908;28;20052;-72
2021/10/06 11:20:59;;;;;;;12.80;7.97;;;;;;;19.00;52.05;100392.88;4982361;28;20046;-74
2021/10/06 11:23:45;;;;;;;11.52;7.38;;;;;;;19.13;51.63;100395.06;4984352;28;20050;-74
2021/10/06 11:26:17;;;;;;;9.30;7.20;;;;;;;19.17;51.79;100391.06;4983176;28;20056;-76
2021/10/06 11:28:46;;;;;;;15.05;8.70;;;;;;;19.17;51.56;100399.09;4987434;28;20065;-74